Terminal Aerodrome Forecast
Issued by NWS Austin/San Antonio, TX

Home | Current Version | Previous Version | Text Only | Print | Product List | Glossary On
Versions: 1 2 3 4 5 6 7 8 9 10 11 12 13 14 15 16 17 18 19 20 21
000
FTUS44 KEWX 250524
TAFDRT
TAF
KDRT 250524Z 2506/2606 14007KT P6SM SCT050
     FM250800 12005KT P6SM VCSH BKN015
     FM251200 14010KT P6SM VCSH BKN008
     FM251600 16010KT P6SM BKN020
     FM251800 17010KT P6SM SKC=

USA.gov is the U.S. government's official web portal to all federal, state and local government web resources and services.